Sorlandet — LDTY — position and weather

sailwx.info

Track history (hours):
 
Tides and Currents Weather Stations Pressure Air Temp Water Temp Dewpoint Dewpoint Depression Visibility Wind Speed Wind Dir Waves Ship Positions

Sorlandet (Norway)

Last reported at 2018-Feb-10 20:33 UTC. Time now 2018-Feb-19 10:19 UTC.
Position N 09°39' W 079°58'.
Warning: this ship's position is 8 days out of date.

Length 65 m; draft 4.5 m.

Type: Sailing vessel. MMSI: 257165000.

Date/timePositionNaut miles runAvg speedWind from/ knotsBaromVisibWave heightAir tempDewpointWater temp
2018-Feb-10 20:33N 09°39' W 079°58'1 1.8
2018-Feb-10 20:15N 09°38' W 079°58'0 1.7
2018-Feb-10 19:58N 09°38' W 079°57'1 1.5
2018-Feb-10 19:30N 09°37' W 079°57'1 2.6
2018-Feb-10 19:00N 09°36' W 079°56'3 5.2
2018-Feb-10 18:30N 09°34' W 079°56'2 4.5
2018-Feb-10 18:00N 09°31' W 079°55'2 4.4
2018-Feb-10 17:30N 09°29' W 079°55'2 4.1
2018-Feb-10 16:58N 09°27' W 079°55'2 3.4
2018-Feb-10 16:30N 09°25' W 079°55'2 3.7
2018-Feb-10 16:00N 09°24' W 079°55'2 3.7
2018-Feb-10 15:30N 09°22' W 079°57'0 0.9
2018-Feb-10 14:59N 09°22' W 079°57'0 0.0
2018-Feb-10 14:29N 09°22' W 079°57'0 0.0
2018-Feb-10 13:59N 09°22' W 079°57'0 0.0
2018-Feb-10 13:29N 09°22' W 079°57'0 0.0
2018-Feb-10 12:53N 09°22' W 079°57'0 0.0
2018-Feb-10 12:29N 09°22' W 079°57'0 0.0
2018-Feb-10 11:59N 09°22' W 079°57'0 0.0
2018-Feb-10 11:29N 09°22' W 079°57'0 0.0
2018-Feb-10 10:56N 09°22' W 079°57'0 0.0
2018-Feb-10 10:29N 09°22' W 079°57'0 0.0
2018-Feb-10 09:59N 09°22' W 079°57'0 0.0
2018-Feb-10 09:29N 09°22' W 079°57'0 0.0
2018-Feb-10 08:59N 09°22' W 079°57'0 0.0
2018-Feb-10 08:29N 09°22' W 079°57'0 0.0
2018-Feb-10 07:59N 09°22' W 079°57'0 0.0
2018-Feb-10 07:29N 09°22' W 079°57'0 0.0
2018-Feb-10 06:59N 09°22' W 079°57'0 0.0
2018-Feb-10 06:29N 09°22' W 079°57'0 0.0
2018-Feb-10 05:59N 09°22' W 079°57'0 0.0
2018-Feb-10 05:29N 09°22' W 079°57'0 0.0
2018-Feb-10 04:59N 09°22' W 079°57'0 0.0
2018-Feb-10 04:29N 09°22' W 079°57'0 0.0
2018-Feb-10 03:59N 09°22' W 079°57'0 0.0
2018-Feb-10 03:29N 09°22' W 079°57'0 0.0
2018-Feb-10 02:59N 09°22' W 079°57'0 0.0
2018-Feb-10 02:29N 09°22' W 079°57'0 0.0
2018-Feb-10 01:59N 09°22' W 079°57'0 0.0
2018-Feb-10 01:29N 09°22' W 079°57'0 0.0
2018-Feb-10 00:59N 09°22' W 079°57'0 0.0
2018-Feb-10 00:29N 09°22' W 079°57'0 0.0
2018-Feb-09 23:59N 09°22' W 079°57'0 0.0
2018-Feb-09 23:29N 09°22' W 079°57'0 0.0
2018-Feb-09 22:59N 09°22' W 079°57'0 0.0
2018-Feb-09 22:44N 09°22' W 079°57'0 0.0
2018-Feb-08 01:29N 09°22' W 079°57'0 0.0
2018-Feb-08 00:59N 09°22' W 079°57'0 0.0
2018-Feb-08 00:29N 09°22' W 079°57'0 0.0
2018-Feb-07 23:59N 09°22' W 079°57'0 0.0
2018-Feb-07 23:29N 09°22' W 079°57'0 0.0
2018-Feb-07 22:59N 09°22' W 079°57'0 0.0
2018-Feb-07 22:28N 09°22' W 079°57'0 0.0
2018-Feb-07 21:59N 09°22' W 079°57'0 0.0
2018-Feb-07 21:31N 09°22' W 079°57'22 1.8
2018-Feb-07 09:27N 09°43' W 079°49'  
2018-Feb-01 06:07N 11°07' W 074°59'110.2
2018-Feb-01 05:59N 11°08' W 074°58'510.0
2018-Feb-01 05:30N 11°10' W 074°53'5 9.3
2018-Feb-01 05:00N 11°10' W 074°49'5 9.2
2018-Feb-01 04:30N 11°11' W 074°44'5 9.8
2018-Feb-01 03:59N 11°12' W 074°39'  
Track history (hours):
 
Tides and Currents Weather Stations Pressure Air Temp Water Temp Dewpoint Dewpoint Depression Visibility Wind Speed Wind Dir Waves Ship Positions

Sorlandet (Norway)

Last reported at 2018-Feb-10 20:33 UTC. Time now 2018-Feb-19 10:19 UTC.
Position N 09°39' W 079°58'.
Warning: this ship's position is 8 days out of date.

Length 65 m; draft 4.5 m.

Type: Sailing vessel. MMSI: 257165000.

Date/timePositionNaut miles runAvg speedWind from/ knotsBaromVisibWave heightAir tempDewpointWater temp
2018-Feb-10 20:33N 09°39' W 079°58'1 1.8
2018-Feb-10 20:15N 09°38' W 079°58'0 1.7
2018-Feb-10 19:58N 09°38' W 079°57'1 1.5
2018-Feb-10 19:30N 09°37' W 079°57'1 2.6
2018-Feb-10 19:00N 09°36' W 079°56'3 5.2
2018-Feb-10 18:30N 09°34' W 079°56'2 4.5
2018-Feb-10 18:00N 09°31' W 079°55'2 4.4
2018-Feb-10 17:30N 09°29' W 079°55'2 4.1
2018-Feb-10 16:58N 09°27' W 079°55'2 3.4
2018-Feb-10 16:30N 09°25' W 079°55'2 3.7
2018-Feb-10 16:00N 09°24' W 079°55'2 3.7
2018-Feb-10 15:30N 09°22' W 079°57'0 0.9
2018-Feb-10 14:59N 09°22' W 079°57'0 0.0
2018-Feb-10 14:29N 09°22' W 079°57'0 0.0
2018-Feb-10 13:59N 09°22' W 079°57'0 0.0
2018-Feb-10 13:29N 09°22' W 079°57'0 0.0
2018-Feb-10 12:53N 09°22' W 079°57'0 0.0
2018-Feb-10 12:29N 09°22' W 079°57'0 0.0
2018-Feb-10 11:59N 09°22' W 079°57'0 0.0
2018-Feb-10 11:29N 09°22' W 079°57'0 0.0
2018-Feb-10 10:56N 09°22' W 079°57'0 0.0
2018-Feb-10 10:29N 09°22' W 079°57'0 0.0
2018-Feb-10 09:59N 09°22' W 079°57'0 0.0
2018-Feb-10 09:29N 09°22' W 079°57'0 0.0
2018-Feb-10 08:59N 09°22' W 079°57'0 0.0
2018-Feb-10 08:29N 09°22' W 079°57'0 0.0
2018-Feb-10 07:59N 09°22' W 079°57'0 0.0
2018-Feb-10 07:29N 09°22' W 079°57'0 0.0
2018-Feb-10 06:59N 09°22' W 079°57'0 0.0
2018-Feb-10 06:29N 09°22' W 079°57'0 0.0
2018-Feb-10 05:59N 09°22' W 079°57'0 0.0
2018-Feb-10 05:29N 09°22' W 079°57'0 0.0
2018-Feb-10 04:59N 09°22' W 079°57'0 0.0
2018-Feb-10 04:29N 09°22' W 079°57'0 0.0
2018-Feb-10 03:59N 09°22' W 079°57'0 0.0
2018-Feb-10 03:29N 09°22' W 079°57'0 0.0
2018-Feb-10 02:59N 09°22' W 079°57'0 0.0
2018-Feb-10 02:29N 09°22' W 079°57'0 0.0
2018-Feb-10 01:59N 09°22' W 079°57'0 0.0
2018-Feb-10 01:29N 09°22' W 079°57'0 0.0
2018-Feb-10 00:59N 09°22' W 079°57'0 0.0
2018-Feb-10 00:29N 09°22' W 079°57'0 0.0
2018-Feb-09 23:59N 09°22' W 079°57'0 0.0
2018-Feb-09 23:29N 09°22' W 079°57'0 0.0
2018-Feb-09 22:59N 09°22' W 079°57'0 0.0
2018-Feb-09 22:44N 09°22' W 079°57'0 0.0
2018-Feb-08 01:29N 09°22' W 079°57'0 0.0
2018-Feb-08 00:59N 09°22' W 079°57'0 0.0
2018-Feb-08 00:29N 09°22' W 079°57'0 0.0
2018-Feb-07 23:59N 09°22' W 079°57'0 0.0
2018-Feb-07 23:29N 09°22' W 079°57'0 0.0
2018-Feb-07 22:59N 09°22' W 079°57'0 0.0
2018-Feb-07 22:28N 09°22' W 079°57'0 0.0
2018-Feb-07 21:59N 09°22' W 079°57'0 0.0
2018-Feb-07 21:31N 09°22' W 079°57'22 1.8
2018-Feb-07 09:27N 09°43' W 079°49'  
2018-Feb-01 06:07N 11°07' W 074°59'110.2
2018-Feb-01 05:59N 11°08' W 074°58'510.0
2018-Feb-01 05:30N 11°10' W 074°53'5 9.3
2018-Feb-01 05:00N 11°10' W 074°49'5 9.2
2018-Feb-01 04:30N 11°11' W 074°44'5 9.8
2018-Feb-01 03:59N 11°12' W 074°39'  

Dump ship's entire track history